Time;durP1;ratioP1;P1;durP2;ratioP2;P2;SDS_P1;SDS_P2;PMS_P1;PMS_P2;Temp;Humidity;BMP_temperature;BMP_pressure;BME280_temperature;BME280_humidity;BME280_pressure;Samples;Min_cycle;Max_cycle;Signal;HPM_P1;HPM_P2
2021/12/30 00:00:40;;;;;;;;;;;;;;;22.36;25.68;97209.06;4906317;29;1488;-75
2021/12/30 00:03:06;;;;;;;;;;;;;;;22.31;25.98;97215.34;4938258;29;2029;-75
2021/12/30 00:05:34;;;;;;;;;;;;;;;22.44;25.70;97222.97;4906055;29;1031;-75
2021/12/30 00:08:00;;;;;;;;;;;;;;;22.04;25.96;97218.09;4937646;29;968;-75
2021/12/30 00:10:28;;;;;;;;;;;;;;;21.72;26.20;97217.34;4937982;29;1064;-75
2021/12/30 00:12:54;;;;;;;;;;;;;;;21.54;26.50;97229.34;4938082;29;964;-75
2021/12/30 00:15:19;;;;;;;;;;;;;;;21.98;26.16;97222.81;4937726;29;960;-75
2021/12/30 00:17:48;;;;;;;;;;;;;;;22.06;26.01;97229.72;4937949;29;919;-75
2021/12/30 00:20:13;;;;;;;;;;;;;;;22.07;25.63;97225.66;4921630;29;1053;-75
2021/12/30 00:22:41;;;;;;;;;;;;;;;22.33;25.53;97255.38;4918466;29;1914;-75
2021/12/30 00:25:07;;;;;;;;;;;;;;;21.69;26.12;97229.59;4919045;29;1057;-75
2021/12/30 00:27:32;;;;;;;;;;;;;;;22.21;25.71;97224.31;4950369;28;1091;-75
2021/12/30 00:29:58;;;;;;;;;;;;;;;21.65;26.37;97223.25;4956322;29;1012;-75
2021/12/30 00:32:23;;;;;;;;;;;;;;;22.21;25.27;97224.31;4956895;29;976;-75
2021/12/30 00:34:49;;;;;;;;;;;;;;;22.16;25.55;97234.22;4956782;29;910;-75
2021/12/30 00:37:14;;;;;;;;;;;;;;;22.18;25.17;97236.59;4956751;29;974;-75
2021/12/30 00:39:39;;;;;;;;;;;;;;;22.32;25.18;97230.31;4956805;29;1022;-75
2021/12/30 00:42:05;;;;;;;;;;;;;;;22.15;25.23;97243.97;4956350;29;1988;-75
2021/12/30 00:44:31;;;;;;;;;;;;;;;22.44;25.09;97234.31;4956311;29;957;-75
2021/12/30 00:46:58;;;;;;;;;;;;;;;22.51;24.79;97240.44;4956651;29;1007;-75
2021/12/30 00:49:24;;;;;;;;;;;;;;;22.17;25.32;97241.44;4956300;29;1014;-75
2021/12/30 00:51:52;;;;;;;;;;;;;;;22.04;25.46;97243.59;4956412;29;911;-75
2021/12/30 00:54:17;;;;;;;;;;;;;;;21.84;25.73;97252.47;4956391;29;923;-75
2021/12/30 00:56:43;;;;;;;;;;;;;;;21.53;26.45;97243.97;4955977;29;1257;-75
2021/12/30 00:59:08;;;;;;;;;;;;;;;22.02;25.66;97251.75;4956504;29;943;-75
2021/12/30 01:01:34;;;;;;;;;;;;;;;21.82;25.84;97258.59;4955977;29;1964;-75
2021/12/30 01:03:59;;;;;;;;;;;;;;;22.39;24.98;97257.59;4958640;28;1012;-75
2021/12/30 01:06:25;;;;;;;;;;;;;;;22.38;24.84;97256.00;4977621;28;956;-75
2021/12/30 01:08:50;;;;;;;;;;;;;;;21.92;25.57;97258.66;4977425;28;986;-75
2021/12/30 01:11:16;;;;;;;;;;;;;;;21.96;25.65;97256.44;4977942;28;918;-75
2021/12/30 01:13:44;;;;;;;;;;;;;;;22.30;25.01;97261.97;4977964;28;1022;-75
2021/12/30 01:16:17;;;;;;;;;;;;;;;22.29;24.91;97257.56;4955872;29;956;-75
2021/12/30 01:21:38;;;;;;;;;;;;;;;22.21;25.07;97264.75;4899003;29;1982;-75
2021/12/30 01:24:03;;;;;;;;;;;;;;;22.18;25.19;97260.06;4899292;29;1012;-75
2021/12/30 01:26:29;;;;;;;;;;;;;;;21.77;25.81;97264.09;4899254;29;999;-75
2021/12/30 01:28:54;;;;;;;;;;;;;;;22.09;25.25;97259.97;4898787;29;996;-75
2021/12/30 01:31:19;;;;;;;;;;;;;;;21.94;25.29;97261.81;4898762;29;973;-75
2021/12/30 01:33:47;;;;;;;;;;;;;;;21.53;25.93;97260.94;4899163;29;997;-75
2021/12/30 01:36:12;;;;;;;;;;;;;;;21.76;25.51;97263.31;4899235;29;906;-75
2021/12/30 01:38:38;;;;;;;;;;;;;;;21.66;25.81;97264.50;4898755;29;1056;-75
2021/12/30 01:41:03;;;;;;;;;;;;;;;22.19;24.91;97266.50;4900583;29;1906;-75
2021/12/30 01:43:29;;;;;;;;;;;;;;;21.80;25.40;97269.59;4902651;29;988;-75
2021/12/30 01:45:55;;;;;;;;;;;;;;;21.93;25.23;97265.91;4902620;29;1030;-75
2021/12/30 01:48:23;;;;;;;;;;;;;;;22.31;24.84;97263.53;4902862;29;1096;-75
2021/12/30 01:50:48;;;;;;;;;;;;;;;21.85;25.32;97271.81;4902308;29;988;-75
2021/12/30 01:53:14;;;;;;;;;;;;;;;22.40;24.42;97259.94;4902382;29;952;-75
2021/12/30 01:55:40;;;;;;;;;;;;;;;22.29;24.60;97270.94;4902197;29;927;-75
2021/12/30 01:58:06;;;;;;;;;;;;;;;22.33;24.88;97271.59;4912257;29;1541;-75
2021/12/30 02:00:31;;;;;;;;;;;;;;;22.20;24.65;97268.06;4921379;29;975;-75
2021/12/30 02:02:57;;;;;;;;;;;;;;;21.44;25.93;97264.50;4921472;29;1992;-75
2021/12/30 02:05:22;;;;;;;;;;;;;;;21.73;25.42;97264.22;4921569;29;914;-75
2021/12/30 02:07:48;;;;;;;;;;;;;;;22.21;24.62;97270.44;4920981;29;969;-75
2021/12/30 02:10:14;;;;;;;;;;;;;;;22.00;25.20;97266.38;4921310;29;1022;-75
2021/12/30 02:12:39;;;;;;;;;;;;;;;21.99;25.24;97278.19;4935601;29;1054;-75
2021/12/30 02:15:08;;;;;;;;;;;;;;;22.08;24.95;97270.53;4940201;29;883;-75
2021/12/30 02:17:33;;;;;;;;;;;;;;;21.67;25.14;97273.78;4920728;29;1056;-75
2021/12/30 02:19:59;;;;;;;;;;;;;;;22.41;24.67;97277.75;4920777;29;975;-75
2021/12/30 02:22:25;;;;;;;;;;;;;;;22.31;24.59;97280.53;4920621;29;1981;-75
2021/12/30 02:24:51;;;;;;;;;;;;;;;22.34;24.26;97279.63;4921031;29;1154;-75
2021/12/30 02:27:16;;;;;;;;;;;;;;;22.32;24.54;97282.13;4920997;29;1049;-76
2021/12/30 02:29:42;;;;;;;;;;;;;;;22.30;24.67;97281.81;4934899;29;1200;-75
2021/12/30 02:32:07;;;;;;;;;;;;;;;22.09;24.68;97274.94;4923744;29;1224;-75
2021/12/30 02:34:33;;;;;;;;;;;;;;;22.21;24.68;97276.09;4939738;29;1012;-75
2021/12/30 02:36:58;;;;;;;;;;;;;;;22.17;24.37;97280.31;4939948;29;1075;-75
2021/12/30 02:39:24;;;;;;;;;;;;;;;21.99;24.69;97289.53;4939461;29;930;-75
2021/12/30 02:41:50;;;;;;;;;;;;;;;21.83;24.73;97285.66;4939343;29;1984;-75
2021/12/30 02:44:15;;;;;;;;;;;;;;;21.65;25.47;97284.75;4939100;29;1012;-75
2021/12/30 02:46:41;;;;;;;;;;;;;;;21.74;24.95;97282.78;4939422;29;937;-75
2021/12/30 02:49:06;;;;;;;;;;;;;;;22.21;24.67;97293.09;4939411;29;1067;-75
2021/12/30 02:51:32;;;;;;;;;;;;;;;21.98;24.59;97280.25;4939200;29;1047;-75
2021/12/30 02:53:57;;;;;;;;;;;;;;;22.06;24.59;97292.84;4937654;29;995;-75
2021/12/30 02:56:23;;;;;;;;;;;;;;;22.36;24.23;97291.28;4920023;29;1039;-75
2021/12/30 02:58:48;;;;;;;;;;;;;;;22.05;24.81;97296.16;4904602;29;939;-75
2021/12/30 03:01:17;;;;;;;;;;;;;;;22.11;24.86;97299.97;4920167;29;1902;-75
2021/12/30 03:03:43;;;;;;;;;;;;;;;22.38;24.36;97295.69;4920412;29;1027;-75
2021/12/30 03:06:09;;;;;;;;;;;;;;;22.22;24.50;97294.66;4920200;29;935;-75
2021/12/30 03:08:34;;;;;;;;;;;;;;;22.35;24.17;97301.03;4920129;29;1041;-75
2021/12/30 03:11:00;;;;;;;;;;;;;;;22.54;23.91;97303.94;4920003;29;975;-75
2021/12/30 03:13:31;;;;;;;;;;;;;;;22.41;24.22;97306.09;4920018;29;937;-75
2021/12/30 03:16:00;;;;;;;;;;;;;;;22.41;24.23;97318.22;4920130;29;1025;-75
2021/12/30 03:18:26;;;;;;;;;;;;;;;22.12;24.60;97307.22;4904579;29;1061;-75
2021/12/30 03:20:52;;;;;;;;;;;;;;;21.99;24.84;97324.31;4906967;29;1899;-75
2021/12/30 03:23:19;;;;;;;;;;;;;;;22.32;24.20;97321.78;4900556;29;982;-75
2021/12/30 03:25:45;;;;;;;;;;;;;;;22.14;24.46;97327.41;4900719;29;951;-75
2021/12/30 03:28:10;;;;;;;;;;;;;;;22.21;24.56;97318.59;4916684;29;990;-75
2021/12/30 03:30:36;;;;;;;;;;;;;;;22.29;24.44;97319.91;4919818;29;947;-75
2021/12/30 03:33:01;;;;;;;;;;;;;;;22.52;24.11;97320.63;4920010;29;1051;-75
2021/12/30 03:35:27;;;;;;;;;;;;;;;22.23;24.51;97329.50;4919429;29;975;-75
2021/12/30 03:37:56;;;;;;;;;;;;;;;22.31;23.97;97334.41;4919735;29;913;-75
2021/12/30 03:40:22;;;;;;;;;;;;;;;22.00;24.38;97327.91;4919366;29;934;-74
2021/12/30 03:42:47;;;;;;;;;;;;;;;21.92;24.74;97327.41;4919316;29;1918;-75
2021/12/30 03:45:13;;;;;;;;;;;;;;;21.71;25.00;97334.69;4919149;29;979;-75
2021/12/30 03:47:41;;;;;;;;;;;;;;;22.46;24.29;97336.66;4919339;29;1155;-75
2021/12/30 03:50:08;;;;;;;;;;;;;;;22.49;24.02;97341.41;4881663;29;969;-75
2021/12/30 03:52:33;;;;;;;;;;;;;;;22.18;24.39;97344.28;4881883;29;956;-75
2021/12/30 03:54:59;;;;;;;;;;;;;;;22.14;24.56;97344.41;4911555;29;1065;-75
2021/12/30 03:57:24;;;;;;;;;;;;;;;22.24;24.19;97351.69;4930038;29;1355;-75
2021/12/30 03:59:50;;;;;;;;;;;;;;;22.28;24.19;97348.72;4937914;29;1130;-75
2021/12/30 04:02:15;;;;;;;;;;;;;;;21.94;24.84;97352.44;4938291;29;1964;-75
2021/12/30 04:04:41;;;;;;;;;;;;;;;22.36;24.14;97347.16;4937393;29;1048;-75
2021/12/30 04:07:06;;;;;;;;;;;;;;;21.98;24.58;97341.78;4938190;29;978;-75
2021/12/30 04:09:31;;;;;;;;;;;;;;;21.54;25.13;97353.91;4938132;29;1017;-75
2021/12/30 04:11:57;;;;;;;;;;;;;;;21.89;25.48;97362.31;4938046;29;1009;-75
2021/12/30 04:14:26;;;;;;;;;;;;;;;22.84;24.12;97362.59;4937739;29;1119;-75
2021/12/30 04:16:52;;;;;;;;;;;;;;;21.75;25.46;97360.81;4937699;29;1011;-75
2021/12/30 04:19:17;;;;;;;;;;;;;;;22.06;25.35;97360.06;4937748;29;1039;-75
2021/12/30 04:21:42;;;;;;;;;;;;;;;21.65;26.02;97364.03;4969121;28;1975;-75
2021/12/30 04:24:08;;;;;;;;;;;;;;;22.48;24.96;97379.50;4978569;28;909;-75
2021/12/30 04:26:33;;;;;;;;;;;;;;;21.99;25.55;97374.50;4960107;28;964;-75
2021/12/30 04:28:59;;;;;;;;;;;;;;;22.19;25.41;97386.31;4978210;28;969;-75
2021/12/30 04:31:24;;;;;;;;;;;;;;;21.94;25.64;97387.22;4978619;28;880;-75
2021/12/30 04:33:50;;;;;;;;;;;;;;;21.59;26.02;97397.81;4960944;28;1104;-75
2021/12/30 04:36:15;;;;;;;;;;;;;;;21.70;26.06;97406.69;4975951;28;955;-75
2021/12/30 04:38:41;;;;;;;;;;;;;;;21.95;25.62;97407.84;4976067;28;1091;-75
2021/12/30 04:41:06;;;;;;;;;;;;;;;22.24;25.14;97416.88;4943417;28;1903;-75
2021/12/30 04:43:32;;;;;;;;;;;;;;;22.47;24.78;97417.59;4976062;28;1005;-75
2021/12/30 04:46:00;;;;;;;;;;;;;;;22.16;25.04;97424.06;4975821;28;1086;-75
2021/12/30 04:48:25;;;;;;;;;;;;;;;21.61;26.14;97426.47;4976286;28;1045;-75
2021/12/30 04:50:51;;;;;;;;;;;;;;;21.92;25.77;97431.44;4975532;28;1012;-75
2021/12/30 04:53:16;;;;;;;;;;;;;;;22.46;24.24;97433.03;4937151;29;1252;-75
2021/12/30 04:55:42;;;;;;;;;;;;;;;22.17;24.85;97439.78;4937264;29;982;-75
2021/12/30 04:58:08;;;;;;;;;;;;;;;22.18;25.06;97446.28;4899266;29;1256;-75
2021/12/30 05:00:33;;;;;;;;;;;;;;;22.05;25.03;97446.31;4898828;29;1189;-75
2021/12/30 05:05:35;;;;;;;;;;;;;;;22.07;25.08;97457.94;4880378;29;1098;-75
2021/12/30 05:08:00;;;;;;;;;;;;;;;22.22;24.94;97459.03;4880293;29;939;-75
2021/12/30 05:10:26;;;;;;;;;;;;;;;22.27;24.67;97469.78;4880914;29;939;-75
2021/12/30 05:12:51;;;;;;;;;;;;;;;22.39;24.58;97467.34;4880319;29;1148;-75
2021/12/30 05:15:17;;;;;;;;;;;;;;;22.25;25.00;97463.00;4879694;29;1041;-75
2021/12/30 05:17:43;;;;;;;;;;;;;;;21.67;25.51;97469.13;4880259;29;1002;-75
2021/12/30 05:20:09;;;;;;;;;;;;;;;21.70;25.27;97480.31;4880191;29;1066;-75
2021/12/30 05:22:34;;;;;;;;;;;;;;;22.36;24.43;97481.19;4880218;29;1906;-75
2021/12/30 05:25:00;;;;;;;;;;;;;;;22.31;24.63;97481.78;4895175;29;1013;-75
2021/12/30 05:27:26;;;;;;;;;;;;;;;21.90;24.84;97487.72;4898646;29;993;-75
2021/12/30 05:29:51;;;;;;;;;;;;;;;22.16;24.83;97489.22;4913932;29;1118;-75
2021/12/30 05:32:16;;;;;;;;;;;;;;;22.43;24.08;97502.00;4918008;29;1020;-75
2021/12/30 05:34:42;;;;;;;;;;;;;;;22.26;24.67;97510.72;4918142;29;976;-75
2021/12/30 05:37:07;;;;;;;;;;;;;;;21.93;24.73;97493.28;4948756;28;1582;-75
2021/12/30 05:39:37;;;;;;;;;;;;;;;22.23;24.63;97505.97;4959282;28;1107;-75
2021/12/30 05:42:02;;;;;;;;;;;;;;;22.03;24.56;97508.31;4977155;28;1981;-75
2021/12/30 05:44:28;;;;;;;;;;;;;;;22.28;24.42;97513.88;4977099;28;1052;-75
2021/12/30 05:46:53;;;;;;;;;;;;;;;22.05;24.60;97512.25;4974157;28;1183;-75
2021/12/30 05:49:19;;;;;;;;;;;;;;;22.36;24.42;97531.41;4967054;28;1187;-75
2021/12/30 05:51:44;;;;;;;;;;;;;;;22.09;24.54;97515.75;4968212;28;1232;-75
2021/12/30 05:54:10;;;;;;;;;;;;;;;21.92;24.59;97525.69;4924549;28;1328;-75
2021/12/30 05:56:35;;;;;;;;;;;;;;;21.98;24.79;97528.72;4967352;28;1223;-75
2021/12/30 05:59:01;;;;;;;;;;;;;;;22.29;24.02;97529.63;4967497;28;1192;-75
2021/12/30 06:01:26;;;;;;;;;;;;;;;21.95;24.16;97535.31;4965481;28;1968;-75
2021/12/30 06:03:52;;;;;;;;;;;;;;;22.07;24.51;97537.28;4966715;28;1215;-75
2021/12/30 06:06:17;;;;;;;;;;;;;;;22.06;24.05;97547.03;4967397;28;1219;-75
2021/12/30 06:08:42;;;;;;;;;;;;;;;22.18;24.21;97560.41;4966998;28;1212;-75
2021/12/30 06:11:08;;;;;;;;;;;;;;;22.16;24.04;97568.56;4966482;28;1265;-75
2021/12/30 06:13:33;;;;;;;;;;;;;;;22.22;24.16;97566.72;4967831;28;1307;-76
2021/12/30 06:15:59;;;;;;;;;;;;;;;22.37;24.04;97575.50;4967259;28;1403;-75
2021/12/30 06:18:24;;;;;;;;;;;;;;;22.44;23.68;97580.13;4966483;28;1180;-75
2021/12/30 06:20:50;;;;;;;;;;;;;;;21.40;24.81;97586.50;4967957;28;1220;-75
2021/12/30 06:23:15;;;;;;;;;;;;;;;21.00;25.63;97580.47;4965989;28;1911;-75
2021/12/30 06:25:40;;;;;;;;;;;;;;;21.75;24.81;97584.50;4967049;28;1314;-75
2021/12/30 06:28:06;;;;;;;;;;;;;;;22.01;24.50;97592.94;4970617;28;1212;-75
2021/12/30 06:30:31;;;;;;;;;;;;;;;22.01;24.16;97599.41;4951300;28;1361;-75
2021/12/30 06:32:57;;;;;;;;;;;;;;;22.08;24.46;97595.56;4971109;28;1219;-75
2021/12/30 06:35:22;;;;;;;;;;;;;;;22.25;24.27;97611.16;4969976;28;1296;-75
2021/12/30 06:37:48;;;;;;;;;;;;;;;22.12;24.38;97621.72;4969442;28;1282;-75
2021/12/30 06:40:13;;;;;;;;;;;;;;;22.44;23.98;97634.00;4952733;28;1445;-75
2021/12/30 06:42:41;;;;;;;;;;;;;;;22.31;23.98;97623.50;4969964;28;1906;-75
2021/12/30 06:45:06;;;;;;;;;;;;;;;22.39;23.91;97631.75;4969841;28;1223;-75
2021/12/30 06:47:32;;;;;;;;;;;;;;;22.54;23.99;97627.94;4971135;28;1192;-75
2021/12/30 06:50:01;;;;;;;;;;;;;;;22.29;24.12;97634.50;4969365;28;1232;-75
2021/12/30 06:52:26;;;;;;;;;;;;;;;21.38;25.20;97636.31;4969481;28;1459;-75
2021/12/30 06:54:52;;;;;;;;;;;;;;;21.40;25.09;97650.78;4949314;29;1374;-75
2021/12/30 06:57:17;;;;;;;;;;;;;;;21.79;25.00;97653.16;4947635;28;1248;-75
2021/12/30 06:59:43;;;;;;;;;;;;;;;22.14;24.38;97667.41;4948160;29;1278;-75
2021/12/30 07:02:08;;;;;;;;;;;;;;;22.35;24.06;97668.72;4948827;29;2002;-75
2021/12/30 07:04:34;;;;;;;;;;;;;;;22.21;24.28;97674.88;4952675;29;1362;-74
2021/12/30 07:07:00;;;;;;;;;;;;;;;22.24;24.29;97671.13;4933742;29;1485;-75
2021/12/30 07:09:25;;;;;;;;;;;;;;;22.39;24.08;97671.44;4947948;29;1330;-75
2021/12/30 07:11:51;;;;;;;;;;;;;;;22.64;24.13;97677.03;4948608;29;1326;-76
2021/12/30 07:14:17;;;;;;;;;;;;;;;22.74;24.05;97675.84;4946817;29;1283;-75
2021/12/30 07:16:43;;;;;;;;;;;;;;;21.67;25.62;97679.47;4948606;29;1294;-75
2021/12/30 07:19:08;;;;;;;;;;;;;;;22.05;25.19;97679.41;4948505;29;1259;-75
2021/12/30 07:21:34;;;;;;;;;;;;;;;21.85;25.50;97685.31;4927545;29;1973;-75
2021/12/30 07:23:59;;;;;;;;;;;;;;;21.56;25.70;97684.66;4929476;29;1299;-75
2021/12/30 07:26:24;;;;;;;;;;;;;;;22.02;25.21;97688.03;4942467;29;1339;-75
2021/12/30 07:28:50;;;;;;;;;;;;;;;22.04;25.00;97685.53;4949462;29;1247;-75
2021/12/30 07:31:15;;;;;;;;;;;;;;;21.95;25.22;97691.09;4931035;29;1290;-75
2021/12/30 07:33:41;;;;;;;;;;;;;;;22.34;24.74;97696.28;4947953;29;1350;-76
2021/12/30 07:36:06;;;;;;;;;;;;;;;22.58;24.49;97705.16;4947553;29;1373;-75
2021/12/30 07:38:31;;;;;;;;;;;;;;;22.33;24.50;97703.19;4926724;29;1528;-75
2021/12/30 07:40:57;;;;;;;;;;;;;;;22.31;24.81;97711.34;4929044;29;1335;-75
2021/12/30 07:43:22;;;;;;;;;;;;;;;22.47;24.47;97715.28;4928075;29;1907;-75
2021/12/30 07:45:48;;;;;;;;;;;;;;;21.89;25.34;97712.75;4928228;29;1366;-75
2021/12/30 07:48:13;;;;;;;;;;;;;;;21.74;25.47;97712.41;4897814;29;1308;-75
2021/12/30 07:50:39;;;;;;;;;;;;;;;21.59;25.57;97724.19;4925191;29;1232;-75
2021/12/30 07:53:04;;;;;;;;;;;;;;;21.97;25.49;97726.25;4909110;29;1189;-75
2021/12/30 07:55:30;;;;;;;;;;;;;;;22.53;24.00;97721.94;4910351;29;1489;-75
2021/12/30 07:57:57;;;;;;;;;;;;;;;22.29;24.35;97728.03;4894835;29;1311;-75
2021/12/30 08:00:23;;;;;;;;;;;;;;;22.01;24.75;97731.78;4888921;29;1257;-75
2021/12/30 08:02:48;;;;;;;;;;;;;;;22.08;24.87;97740.06;4874953;29;1972;-75
2021/12/30 08:05:18;;;;;;;;;;;;;;;22.25;24.79;97740.75;4858177;29;1301;-75
2021/12/30 08:07:47;;;;;;;;;;;;;;;22.44;24.28;97748.19;4890050;29;1298;-75
2021/12/30 08:10:14;;;;;;;;;;;;;;;22.26;24.68;97754.44;4888851;29;1300;-75
2021/12/30 08:12:42;;;;;;;;;;;;;;;22.38;24.33;97766.22;4871503;29;1238;-75
2021/12/30 08:15:08;;;;;;;;;;;;;;;22.17;24.68;97760.00;4862358;29;1375;-75
2021/12/30 08:17:34;;;;;;;;;;;;;;;21.95;24.96;97767.59;4862414;29;1629;-75
2021/12/30 08:19:59;;;;;;;;;;;;;;;21.65;25.42;97772.53;4847073;29;911;-75
2021/12/30 08:22:24;;;;;;;;;;;;;;;22.30;24.63;97766.47;4862743;29;1982;-75
2021/12/30 08:24:50;;;;;;;;;;;;;;;22.44;24.23;97772.91;4840397;29;936;-75
2021/12/30 08:27:15;;;;;;;;;;;;;;;21.97;24.87;97777.22;4843743;29;1023;-75
2021/12/30 08:29:41;;;;;;;;;;;;;;;22.25;24.56;97775.53;4843767;29;1011;-75
2021/12/30 08:32:08;;;;;;;;;;;;;;;22.25;24.76;97775.53;4807602;29;1021;-75
2021/12/30 08:34:33;;;;;;;;;;;;;;;22.77;23.59;97774.19;4807203;29;1018;-75
2021/12/30 08:36:59;;;;;;;;;;;;;;;21.74;25.39;97792.50;4807326;29;1025;-75
2021/12/30 08:39:24;;;;;;;;;;;;;;;21.60;25.42;97790.09;4797022;29;1131;-75
2021/12/30 08:41:50;;;;;;;;;;;;;;;21.95;25.26;97799.53;4797205;29;1915;-76
2021/12/30 08:44:15;;;;;;;;;;;;;;;22.63;24.25;97800.97;4798293;29;1274;-75
2021/12/30 08:46:41;;;;;;;;;;;;;;;22.75;23.81;97795.75;4817691;29;1258;-76
2021/12/30 08:49:06;;;;;;;;;;;;;;;21.86;25.39;97805.06;4827357;29;1265;-76
2021/12/30 08:51:32;;;;;;;;;;;;;;;22.12;24.97;97811.56;4845627;29;1293;-75
2021/12/30 08:53:57;;;;;;;;;;;;;;;22.14;24.77;97809.09;4843044;29;1281;-76
2021/12/30 08:56:23;;;;;;;;;;;;;;;22.00;25.01;97803.84;4845459;29;1415;-75
2021/12/30 08:58:48;;;;;;;;;;;;;;;21.59;25.76;97811.16;4861352;29;1333;-76
2021/12/30 09:01:14;;;;;;;;;;;;;;;22.33;24.70;97810.91;4864344;29;2005;-76
2021/12/30 09:03:39;;;;;;;;;;;;;;;21.90;25.51;97821.97;4935962;28;1233;-76
2021/12/30 09:06:05;;;;;;;;;;;;;;;22.25;24.66;97832.22;4909329;29;1359;-76
2021/12/30 09:08:31;;;;;;;;;;;;;;;22.30;24.42;97823.16;4907100;29;1244;-76
2021/12/30 09:10:57;;;;;;;;;;;;;;;21.99;25.02;97824.94;4908131;29;1340;-76
2021/12/30 09:13:22;;;;;;;;;;;;;;;21.87;25.24;97822.88;4908494;29;1224;-76
2021/12/30 09:15:48;;;;;;;;;;;;;;;22.00;25.22;97818.81;4906885;29;1423;-76
2021/12/30 09:18:13;;;;;;;;;;;;;;;22.60;24.32;97815.31;4908538;29;1324;-75
2021/12/30 09:20:39;;;;;;;;;;;;;;;22.27;24.86;97815.53;4908043;29;1283;-76
2021/12/30 09:23:05;;;;;;;;;;;;;;;22.27;24.55;97826.09;4917054;29;1911;-76
2021/12/30 09:25:30;;;;;;;;;;;;;;;22.19;25.03;97827.59;4915053;29;1146;-76
2021/12/30 09:27:56;;;;;;;;;;;;;;;22.17;25.01;97828.00;4917180;29;1339;-76
2021/12/30 09:30:21;;;;;;;;;;;;;;;22.40;24.72;97837.44;4917505;29;1306;-76
2021/12/30 09:32:47;;;;;;;;;;;;;;;22.11;24.93;97832.66;4917383;29;1256;-76
2021/12/30 09:35:12;;;;;;;;;;;;;;;22.14;25.05;97836.66;4885806;29;1301;-76
2021/12/30 09:37:38;;;;;;;;;;;;;;;22.07;25.26;97831.94;4941178;29;1358;-76
2021/12/30 09:40:03;;;;;;;;;;;;;;;21.71;25.72;97844.38;4949906;29;1199;-73
2021/12/30 09:42:29;;;;;;;;;;;;;;;22.14;24.85;97848.78;4958225;28;1911;-73
2021/12/30 09:44:54;;;;;;;;;;;;;;;22.27;25.09;97846.72;4957895;29;1017;-73
2021/12/30 09:47:20;;;;;;;;;;;;;;;22.23;24.81;97850.94;4953436;28;1121;-74
2021/12/30 09:49:47;;;;;;;;;;;;;;;21.58;26.31;97849.22;4930757;29;1374;-74
2021/12/30 09:52:13;;;;;;;;;;;;;;;21.97;25.45;97847.25;4946937;28;1386;-73
2021/12/30 09:54:38;;;;;;;;;;;;;;;22.01;25.33;97847.94;4930488;29;1381;-73
2021/12/30 09:57:04;;;;;;;;;;;;;;;21.43;26.08;97846.00;4947665;28;1236;-73
2021/12/30 09:59:31;;;;;;;;;;;;;;;21.81;25.75;97851.78;4942079;29;1338;-74
2021/12/30 10:01:57;;;;;;;;;;;;;;;21.80;25.42;97852.19;4940524;29;1902;-74
2021/12/30 10:04:32;;;;;;;;;;;;;;;22.27;24.81;97863.72;4949730;28;1077;-74
2021/12/30 10:06:58;;;;;;;;;;;;;;;21.80;25.97;97858.66;4952843;28;1413;-74
2021/12/30 10:09:29;;;;;;;;;;;;;;;22.00;25.25;97860.50;4950811;29;1212;-74
2021/12/30 10:12:00;;;;;;;;;;;;;;;22.07;25.45;97854.63;4934347;29;1240;-74
2021/12/30 10:14:30;;;;;;;;;;;;;;;22.20;24.94;97852.63;4932793;29;2196;-74
2021/12/30 10:17:14;;;;;;;;;;;;;;;21.99;25.69;97856.09;4930682;29;1216;-74
2021/12/30 10:19:39;;;;;;;;;;;;;;;22.14;24.97;97860.09;4930452;29;1276;-73
2021/12/30 10:22:08;;;;;;;;;;;;;;;22.09;25.32;97852.13;4928878;29;1902;-74
2021/12/30 10:24:34;;;;;;;;;;;;;;;21.29;26.68;97852.81;4930337;29;1362;-74
2021/12/30 10:26:59;;;;;;;;;;;;;;;21.60;26.34;97858.03;4899063;29;1503;-73
2021/12/30 10:29:25;;;;;;;;;;;;;;;22.04;25.64;97849.88;4926038;29;1240;-74
2021/12/30 10:31:50;;;;;;;;;;;;;;;22.21;25.14;97862.72;4920590;29;1063;-74
2021/12/30 10:34:17;;;;;;;;;;;;;;;22.19;25.29;97856.72;4928018;29;1379;-74
2021/12/30 10:36:42;;;;;;;;;;;;;;;22.41;25.16;97867.38;4930385;29;1415;-75
2021/12/30 10:39:21;;;;;;;;;;;;;;;22.32;25.33;97868.84;4928617;29;1417;-75
2021/12/30 10:41:47;;;;;;;;;;;;;;;21.85;26.23;97863.75;4909209;29;1906;-74
2021/12/30 10:44:13;;;;;;;;;;;;;;;22.04;25.55;97858.38;4865234;29;1289;-74
2021/12/30 10:46:38;;;;;;;;;;;;;;;22.20;25.49;97863.16;4929587;29;1295;-75
2021/12/30 10:49:19;;;;;;;;;;;;;;;22.28;25.24;97865.34;4928859;29;1244;-74
2021/12/30 10:51:48;;;;;;;;;;;;;;;21.47;26.28;97865.72;4921653;29;1225;-75
2021/12/30 10:54:33;;;;;;;;;;;;;;;21.76;26.15;97869.31;4920380;29;998;-75
2021/12/30 10:57:04;;;;;;;;;;;;;;;22.00;25.63;97866.19;4927742;29;1355;-75
2021/12/30 10:59:30;;;;;;;;;;;;;;;22.20;25.64;97872.47;4939191;29;1093;-76
2021/12/30 11:01:57;;;;;;;;;;;;;;;22.09;25.75;97877.66;4938826;29;1915;-76
2021/12/30 11:04:31;;;;;;;;;;;;;;;21.98;25.81;97880.00;4938996;29;972;-76
2021/12/30 11:06:56;;;;;;;;;;;;;;;22.15;25.62;97889.25;4907294;29;1074;-76
2021/12/30 11:09:22;;;;;;;;;;;;;;;22.33;25.58;97887.44;4938818;29;1043;-74
2021/12/30 11:11:54;;;;;;;;;;;;;;;21.78;26.28;97889.47;4942568;28;1072;-74
2021/12/30 11:14:23;;;;;;;;;;;;;;;21.78;26.42;97895.13;4978069;28;838;-75
2021/12/30 11:17:17;;;;;;;;;;;;;;;21.83;25.84;97905.91;4979652;28;906;-75
2021/12/30 11:19:56;;;;;;;;;;;;;;;21.98;26.28;97902.69;4900645;29;1013;-74
2021/12/30 11:22:22;;;;;;;;;;;;;;;21.79;26.30;97895.94;4900983;29;1903;-74
2021/12/30 11:24:48;;;;;;;;;;;;;;;21.81;26.25;97916.91;4900631;29;984;-75
2021/12/30 11:27:14;;;;;;;;;;;;;;;22.12;25.70;97912.81;4900767;29;937;-75
2021/12/30 11:29:43;;;;;;;;;;;;;;;22.06;26.06;97913.31;4900907;29;1057;-75
2021/12/30 11:32:08;;;;;;;;;;;;;;;21.75;26.52;97913.03;4901329;29;1001;-75
2021/12/30 11:34:34;;;;;;;;;;;;;;;21.87;26.42;97913.53;4900587;29;913;-75
2021/12/30 11:36:59;;;;;;;;;;;;;;;21.57;26.85;97912.75;4900825;29;1039;-75
2021/12/30 11:39:25;;;;;;;;;;;;;;;22.00;26.38;97917.16;4900593;29;1110;-75
2021/12/30 11:41:54;;;;;;;;;;;;;;;22.17;25.90;97915.88;4900721;29;1911;-75
2021/12/30 11:44:37;;;;;;;;;;;;;;;22.24;25.69;97912.84;4884906;29;1021;-75
2021/12/30 11:47:03;;;;;;;;;;;;;;;21.75;26.70;97907.34;4900492;29;1014;-75
2021/12/30 11:49:58;;;;;;;;;;;;;;;21.81;26.33;97916.91;4900408;29;1084;-75
2021/12/30 11:52:42;;;;;;;;;;;;;;;22.39;25.49;97918.06;4844541;29;1019;-75
2021/12/30 11:55:27;;;;;;;;;;;;;;;21.55;26.90;97926.53;4844866;29;997;-75
2021/12/30 11:57:53;;;;;;;;;;;;;;;21.77;26.56;97927.53;4919114;29;1056;-75
2021/12/30 12:00:32;;;;;;;;;;;;;;;22.03;26.29;97934.06;4918813;29;1050;-75
2021/12/30 12:03:02;;;;;;;;;;;;;;;22.01;26.02;97935.75;4918727;29;1919;-75
2021/12/30 12:05:40;;;;;;;;;;;;;;;22.04;26.03;97940.53;4919217;29;1035;-75
2021/12/30 12:08:06;;;;;;;;;;;;;;;21.40;27.31;97942.31;4919073;29;930;-74
2021/12/30 12:10:35;;;;;;;;;;;;;;;22.30;25.71;97947.06;4903505;29;921;-75
2021/12/30 12:13:18;;;;;;;;;;;;;;;22.07;26.14;97946.09;4918982;29;1191;-75
2021/12/30 12:15:44;;;;;;;;;;;;;;;21.69;26.45;97948.78;4918676;29;1020;-75
2021/12/30 12:18:11;;;;;;;;;;;;;;;22.16;26.04;97951.13;4918755;29;936;-75
2021/12/30 12:20:36;;;;;;;;;;;;;;;21.87;26.53;97948.31;4919054;29;967;-75
2021/12/30 12:23:21;;;;;;;;;;;;;;;21.56;26.97;97950.78;4881269;29;1910;-75
2021/12/30 12:25:47;;;;;;;;;;;;;;;21.80;26.78;97951.31;4880688;29;1074;-75
2021/12/30 12:28:18;;;;;;;;;;;;;;;22.26;25.83;97954.88;4893669;29;979;-75
2021/12/30 12:30:43;;;;;;;;;;;;;;;21.63;26.98;97956.25;4918778;29;984;-75
2021/12/30 12:33:22;;;;;;;;;;;;;;;21.99;26.38;97961.72;4918370;29;983;-75
2021/12/30 12:35:47;;;;;;;;;;;;;;;21.90;26.40;97960.78;4918461;29;1028;-75
2021/12/30 12:38:13;;;;;;;;;;;;;;;22.00;26.49;97962.50;4918713;29;997;-74
2021/12/30 12:40:39;;;;;;;;;;;;;;;22.12;25.96;97969.47;4918180;29;1097;-75
2021/12/30 12:43:12;;;;;;;;;;;;;;;22.20;25.94;97970.88;4918277;29;1988;-74
2021/12/30 12:45:51;;;;;;;;;;;;;;;22.22;25.81;97980.50;4918681;29;888;-75
2021/12/30 12:48:23;;;;;;;;;;;;;;;22.05;25.83;97976.91;4918454;29;1017;-75
2021/12/30 12:51:00;;;;;;;;;;;;;;;21.93;26.33;97979.72;4886796;29;1107;-74
2021/12/30 12:53:28;;;;;;;;;;;;;;;22.14;25.79;97990.47;4923229;29;912;-75
2021/12/30 12:55:55;;;;;;;;;;;;;;;22.02;26.07;97994.00;4937593;29;1055;-74
2021/12/30 12:58:21;;;;;;;;;;;;;;;22.16;25.65;97999.31;4937071;29;1095;-74
2021/12/30 13:00:46;;;;;;;;;;;;;;;21.52;26.93;98006.72;4903252;29;898;-74
2021/12/30 13:03:13;;;;;;;;;;;;;;;21.76;26.38;98010.94;4880296;29;1974;-75